createdAt,value
2023-05-18T00:01:48.705Z,8.37
2023-05-18T00:04:17.248Z,6.77
2023-05-18T00:06:45.113Z,8.50
2023-05-18T00:09:12.852Z,5.87
2023-05-18T00:11:41.986Z,6.40
2023-05-18T00:14:09.765Z,10.03
2023-05-18T00:16:37.623Z,7.43
2023-05-18T00:19:05.556Z,9.80
2023-05-18T00:21:33.680Z,7.83
2023-05-18T00:24:01.621Z,7.43
2023-05-18T00:26:29.354Z,8.67
2023-05-18T00:28:58.412Z,9.63
2023-05-18T00:31:26.432Z,7.30
2023-05-18T00:33:54.244Z,6.40
2023-05-18T00:36:22.019Z,7.10
2023-05-18T00:38:49.756Z,7.90
2023-05-18T00:41:17.557Z,7.43
2023-05-18T00:43:45.468Z,12.43
2023-05-18T00:46:14.625Z,4.73
2023-05-18T00:48:42.796Z,7.37
2023-05-18T00:51:11.201Z,8.50
2023-05-18T00:53:39.112Z,7.03
2023-05-18T00:56:07.931Z,10.13
2023-05-18T00:58:36.483Z,8.97
2023-05-18T01:01:06.104Z,8.23
2023-05-18T01:03:38.184Z,9.47
2023-05-18T01:06:06.785Z,7.33
2023-05-18T01:08:36.283Z,8.33
2023-05-18T01:11:11.662Z,9.03
2023-05-18T01:13:48.164Z,7.67
2023-05-18T01:16:24.223Z,4.60
2023-05-18T01:19:01.128Z,8.53
2023-05-18T01:21:46.339Z,6.57
2023-05-18T01:24:26.648Z,5.70
2023-05-18T01:26:57.745Z,8.50
2023-05-18T01:29:26.933Z,5.90
2023-05-18T01:31:54.743Z,7.70
2023-05-18T01:34:22.889Z,5.73
2023-05-18T01:36:50.776Z,6.90
2023-05-18T01:39:18.866Z,7.93
2023-05-18T01:41:53.745Z,8.50
2023-05-18T01:44:27.752Z,4.50
2023-05-18T01:47:01.725Z,7.40
2023-05-18T01:49:34.426Z,7.53
2023-05-18T01:52:06.235Z,9.13
2023-05-18T01:54:37.026Z,7.23
2023-05-18T01:57:07.915Z,9.00
2023-05-18T01:59:38.913Z,8.90
2023-05-18T02:02:07.497Z,7.57
2023-05-18T02:04:36.166Z,8.43
2023-05-18T02:07:04.083Z,11.03
2023-05-18T02:09:31.979Z,5.70
2023-05-18T02:11:59.758Z,7.70
2023-05-18T02:14:27.676Z,5.17
2023-05-18T02:16:57.626Z,6.90
2023-05-18T02:19:25.667Z,6.50
2023-05-18T02:21:53.565Z,7.73
2023-05-18T02:24:23.105Z,6.33
2023-05-18T02:26:51.186Z,6.77
2023-05-18T02:29:18.989Z,5.17
2023-05-18T02:31:46.818Z,6.97
2023-05-18T02:34:17.095Z,8.97
2023-05-18T02:36:46.239Z,7.40
2023-05-18T02:39:13.997Z,10.90
2023-05-18T02:41:41.772Z,8.57
2023-05-18T02:44:09.546Z,9.13
2023-05-18T02:46:37.314Z,7.67
2023-05-18T02:49:05.031Z,8.47
2023-05-18T02:51:34.138Z,6.67
2023-05-18T02:54:01.956Z,9.97
2023-05-18T02:56:29.827Z,8.67
2023-05-18T02:58:58.530Z,7.00
2023-05-18T03:01:27.330Z,6.97
2023-05-18T03:03:57.763Z,8.27
2023-05-18T03:06:26.423Z,5.23
2023-05-18T03:08:55.964Z,6.50
2023-05-18T03:11:23.935Z,4.40
2023-05-18T03:13:51.860Z,4.87
2023-05-18T03:16:19.698Z,8.23
2023-05-18T03:18:47.581Z,7.57
2023-05-18T03:21:15.307Z,7.33
2023-05-18T03:23:43.050Z,10.63
2023-05-18T03:26:12.464Z,9.00
2023-05-18T03:28:40.515Z,6.63
2023-05-18T03:31:08.314Z,8.73
2023-05-18T03:33:36.177Z,9.93
2023-05-18T03:36:05.643Z,8.83
2023-05-18T03:38:33.417Z,9.87
2023-05-18T03:41:01.323Z,7.47
2023-05-18T03:43:32.507Z,7.43
2023-05-18T03:46:00.583Z,9.07
2023-05-18T03:48:28.597Z,11.10
2023-05-18T03:50:56.506Z,7.00
2023-05-18T03:53:24.322Z,6.50
2023-05-18T03:55:52.389Z,9.27
2023-05-18T03:58:21.011Z,7.50
2023-05-18T04:00:51.029Z,6.83
2023-05-18T04:03:19.139Z,5.47
2023-05-18T04:05:47.033Z,6.60
2023-05-18T04:08:15.063Z,7.30
2023-05-18T04:10:43.594Z,8.60
2023-05-18T04:13:11.526Z,7.33
2023-05-18T04:15:39.855Z,6.90
2023-05-18T04:18:10.392Z,11.07
2023-05-18T04:20:38.916Z,8.00
2023-05-18T04:23:09.714Z,5.50
2023-05-18T04:25:39.446Z,5.63
2023-05-18T04:28:07.587Z,6.00
2023-05-18T04:30:37.623Z,6.40
2023-05-18T04:33:06.605Z,8.17
2023-05-18T04:35:36.110Z,6.93
2023-05-18T04:38:05.267Z,6.93
2023-05-18T04:40:33.926Z,8.37
2023-05-18T04:43:01.903Z,5.37
2023-05-18T04:45:30.198Z,9.03
2023-05-18T04:47:58.688Z,6.50
2023-05-18T04:50:27.925Z,7.60
2023-05-18T04:52:58.125Z,8.07
2023-05-18T04:55:27.653Z,7.20
2023-05-18T04:57:57.244Z,10.07
2023-05-18T05:00:26.277Z,7.10
2023-05-18T05:02:54.872Z,7.20
2023-05-18T05:05:22.973Z,5.33
2023-05-18T05:07:50.934Z,6.83
2023-05-18T05:10:20.863Z,8.13
2023-05-18T05:12:51.001Z,5.70
2023-05-18T05:15:19.009Z,7.00
2023-05-18T05:17:47.773Z,7.90
2023-05-18T05:20:15.749Z,6.00
2023-05-18T05:22:43.574Z,7.63
2023-05-18T05:25:11.743Z,5.80
2023-05-18T05:27:40.891Z,11.30
2023-05-18T05:30:09.796Z,7.97
2023-05-18T05:32:37.762Z,5.90
2023-05-18T05:35:06.288Z,8.23
2023-05-18T05:37:34.076Z,14.07
2023-05-18T05:40:02.008Z,10.13
2023-05-18T05:42:30.070Z,9.67
2023-05-18T05:44:59.249Z,8.20
2023-05-18T05:47:27.146Z,6.30
2023-05-18T05:49:55.857Z,8.90
2023-05-18T05:52:23.633Z,9.07
2023-05-18T05:54:51.449Z,8.87
2023-05-18T05:57:19.203Z,8.27
2023-05-18T05:59:47.009Z,8.73
2023-05-18T06:02:16.213Z,11.07
2023-05-18T06:04:44.343Z,9.30
2023-05-18T06:07:12.853Z,12.17
2023-05-18T06:09:40.881Z,8.73
2023-05-18T06:12:09.726Z,11.00
2023-05-18T06:14:37.560Z,7.40
2023-05-18T06:17:05.754Z,6.83
2023-05-18T06:19:34.904Z,9.93
2023-05-18T06:22:02.783Z,5.93
2023-05-18T06:24:30.617Z,8.83
2023-05-18T06:26:58.397Z,9.47
2023-05-18T06:29:26.245Z,8.53
2023-05-18T06:31:54.079Z,8.80
2023-05-18T06:34:21.872Z,12.20
2023-05-18T06:36:50.962Z,9.67
2023-05-18T06:39:18.687Z,8.57
2023-05-18T06:41:46.530Z,8.63
2023-05-18T06:44:14.286Z,12.73
2023-05-18T06:46:42.061Z,7.63
2023-05-18T06:49:09.884Z,6.10
2023-05-18T06:51:37.930Z,11.90
2023-05-18T06:54:07.456Z,9.77
2023-05-18T06:56:35.250Z,5.27
2023-05-18T06:59:03.495Z,8.43
2023-05-18T07:01:31.370Z,7.37
2023-05-18T07:03:59.152Z,8.40
2023-05-18T07:06:27.049Z,8.03
2023-05-18T07:08:54.827Z,6.83
2023-05-18T07:11:23.946Z,10.03
2023-05-18T07:13:51.699Z,8.23
2023-05-18T07:16:19.479Z,6.37
2023-05-18T07:18:47.325Z,7.67
2023-05-18T07:21:15.107Z,9.63
2023-05-18T07:23:42.880Z,5.13
2023-05-18T07:26:12.003Z,6.33
2023-05-18T07:28:41.231Z,7.13
2023-05-18T07:31:09.246Z,7.53
2023-05-18T07:33:38.060Z,10.63
2023-05-18T07:36:08.163Z,5.83
2023-05-18T07:38:35.953Z,11.40
2023-05-18T07:41:03.881Z,5.75
2023-05-18T07:43:31.678Z,8.27
2023-05-18T07:46:00.779Z,8.23
2023-05-18T07:48:28.542Z,5.30
2023-05-18T07:51:08.612Z,6.50
2023-05-18T07:53:41.815Z,7.75
2023-05-18T07:56:12.712Z,11.65
2023-05-18T08:08:36.111Z,8.43
2023-05-18T08:11:03.865Z,5.53
2023-05-18T08:13:33.888Z,5.65
2023-05-18T08:16:11.053Z,8.30
2023-05-18T08:18:39.847Z,11.00
2023-05-18T08:21:09.458Z,5.65
2023-05-18T08:23:39.575Z,6.43
2023-05-18T08:26:08.307Z,4.70
2023-05-18T08:28:36.188Z,5.82
2023-05-18T08:31:04.022Z,5.07
2023-05-18T08:33:32.529Z,4.60
2023-05-18T08:36:00.472Z,4.78
2023-05-18T08:38:28.291Z,5.47
2023-05-18T08:41:06.196Z,4.25
2023-05-18T08:43:38.938Z,4.88
2023-05-18T08:46:12.428Z,4.82
2023-05-18T08:48:41.749Z,4.35
2023-05-18T08:51:11.286Z,6.30
2023-05-18T08:53:39.976Z,4.13
2023-05-18T08:56:11.844Z,6.32
2023-05-18T08:58:48.780Z,4.38
2023-05-18T09:01:17.807Z,7.78
2023-05-18T09:03:49.213Z,6.47
2023-05-18T09:06:17.087Z,5.90
2023-05-18T09:08:46.959Z,7.80
2023-05-18T09:11:17.176Z,4.82
2023-05-18T09:13:45.874Z,3.97
2023-05-18T09:16:13.704Z,4.22
2023-05-18T09:18:41.702Z,6.35
2023-05-18T09:21:10.516Z,5.45
2023-05-18T09:23:40.058Z,6.50
2023-05-18T09:26:10.021Z,5.22
2023-05-18T09:28:41.883Z,4.15
2023-05-18T09:31:12.717Z,4.72
2023-05-18T09:33:41.417Z,4.43
2023-05-18T09:36:11.013Z,4.35
2023-05-18T09:38:40.499Z,6.55
2023-05-18T09:41:12.587Z,4.30
2023-05-18T09:43:43.708Z,6.30
2023-05-18T09:46:13.200Z,7.32
2023-05-18T09:48:44.546Z,6.68
2023-05-18T09:51:13.711Z,7.90
2023-05-18T09:53:41.836Z,5.15
2023-05-18T09:56:12.121Z,7.82
2023-05-18T09:58:42.250Z,5.57
2023-05-18T10:01:10.097Z,6.70
2023-05-18T10:03:39.215Z,4.93
2023-05-18T10:06:08.527Z,7.03
2023-05-18T10:08:37.842Z,4.72
2023-05-18T10:11:06.621Z,7.72
2023-05-18T10:13:35.987Z,6.60
2023-05-18T10:16:07.102Z,6.45
2023-05-18T10:18:37.592Z,6.47
2023-05-18T10:21:07.120Z,6.40
2023-05-18T10:23:36.482Z,4.80
2023-05-18T10:26:09.733Z,6.43
2023-05-18T10:28:42.192Z,4.90
2023-05-18T10:31:11.393Z,9.50
2023-05-18T10:33:39.386Z,5.75
2023-05-18T10:36:08.402Z,5.97
2023-05-18T10:38:39.907Z,6.60
2023-05-18T10:41:08.954Z,4.85
2023-05-18T10:43:37.847Z,4.47
2023-05-18T10:46:08.483Z,7.15
2023-05-18T10:48:40.163Z,7.00
2023-05-18T10:51:09.316Z,5.45
2023-05-18T10:53:39.093Z,6.82
2023-05-18T10:56:08.232Z,6.90
2023-05-18T10:58:37.892Z,4.50
2023-05-18T11:01:09.619Z,4.18
2023-05-18T11:03:40.106Z,7.05
2023-05-18T11:06:10.415Z,3.03
2023-05-18T11:08:45.365Z,4.18
2023-05-18T11:11:13.301Z,7.13
2023-05-18T11:13:46.213Z,6.63
2023-05-18T11:16:15.792Z,5.47
2023-05-18T11:18:47.435Z,9.60
2023-05-18T11:21:35.471Z,3.75
2023-05-18T11:24:31.340Z,6.30
2023-05-18T11:27:03.499Z,5.78
2023-05-18T11:29:33.861Z,5.68
2023-05-18T11:32:02.562Z,6.05
2023-05-18T11:34:53.238Z,5.53
2023-05-18T11:37:49.351Z,6.22
2023-05-18T11:40:47.966Z,5.25
2023-05-18T11:43:22.861Z,7.50
2023-05-18T11:45:54.649Z,7.25
2023-05-18T11:48:24.423Z,7.40
2023-05-18T11:50:56.154Z,8.43
2023-05-18T11:53:25.302Z,4.47
2023-05-18T11:55:54.572Z,6.88
2023-05-18T11:58:22.438Z,3.60
2023-05-18T12:00:50.441Z,4.65
2023-05-18T12:03:18.678Z,5.53
2023-05-18T12:05:49.328Z,5.22
2023-05-18T12:08:19.906Z,6.03
2023-05-18T12:10:48.113Z,5.40
2023-05-18T12:13:18.602Z,4.50
2023-05-18T12:15:47.319Z,3.97
2023-05-18T12:18:15.167Z,6.88
2023-05-18T12:20:43.592Z,3.10
2023-05-18T12:23:11.336Z,4.40
2023-05-18T12:25:41.225Z,4.90
2023-05-18T12:28:09.692Z,7.18
2023-05-18T12:30:38.635Z,5.03
2023-05-18T12:33:07.499Z,5.43
2023-05-18T12:35:35.869Z,4.55
2023-05-18T12:38:04.073Z,6.90
2023-05-18T12:40:38.593Z,4.93
2023-05-18T12:43:07.771Z,3.85
2023-05-18T12:45:35.708Z,5.85
2023-05-18T12:48:06.953Z,5.03
2023-05-18T12:50:34.947Z,7.68
2023-05-18T12:53:02.792Z,4.20
2023-05-18T12:55:32.198Z,6.05
2023-05-18T12:58:02.981Z,7.57
2023-05-18T13:00:34.723Z,5.22
2023-05-18T13:03:13.603Z,5.18
2023-05-18T13:05:44.909Z,5.93
2023-05-18T13:08:16.275Z,5.03
2023-05-18T13:10:45.158Z,3.33
2023-05-18T13:13:16.677Z,5.25
2023-05-18T13:15:46.947Z,5.15
2023-05-18T13:18:15.354Z,4.63
2023-05-18T13:20:45.108Z,6.13
2023-05-18T13:23:14.652Z,7.75
2023-05-18T13:25:43.616Z,7.97
2023-05-18T13:28:12.381Z,7.82
2023-05-18T13:30:42.172Z,5.30
2023-05-18T13:33:12.239Z,6.53
2023-05-18T13:35:42.099Z,6.47
2023-05-18T13:38:10.509Z,5.05
2023-05-18T13:40:39.369Z,5.00
2023-05-18T13:43:07.282Z,7.80
2023-05-18T13:45:37.067Z,5.15
2023-05-18T13:48:10.105Z,5.85
2023-05-18T13:50:40.197Z,5.97
2023-05-18T13:53:08.492Z,3.88
2023-05-18T13:55:36.935Z,7.35
2023-05-18T13:58:04.808Z,5.60
2023-05-18T14:00:33.921Z,5.95
2023-05-18T14:03:02.715Z,7.68
2023-05-18T14:05:30.728Z,4.68
2023-05-18T14:07:59.882Z,8.40
2023-05-18T14:10:27.660Z,5.45
2023-05-18T14:12:55.533Z,6.32
2023-05-18T14:15:23.488Z,3.75
2023-05-18T14:17:51.409Z,4.32
2023-05-18T14:20:19.796Z,3.35
2023-05-18T14:22:47.923Z,5.53
2023-05-18T14:25:17.186Z,6.03
2023-05-18T14:27:45.047Z,3.35
2023-05-18T14:30:13.213Z,4.35
2023-05-18T14:32:41.109Z,4.28
2023-05-18T14:35:09.774Z,8.15
2023-05-18T14:37:37.621Z,3.85
2023-05-18T14:40:06.466Z,4.95
2023-05-18T14:42:36.529Z,5.53
2023-05-18T14:45:05.134Z,4.55
2023-05-18T14:47:32.969Z,4.40
2023-05-18T14:50:00.730Z,4.53
2023-05-18T14:52:28.498Z,3.90
2023-05-18T14:54:56.326Z,3.75
2023-05-18T14:57:26.514Z,6.03
2023-05-18T14:59:56.199Z,4.20
2023-05-18T15:02:24.318Z,4.13
2023-05-18T15:04:52.341Z,5.03
2023-05-18T15:07:20.243Z,7.63
2023-05-18T15:09:48.394Z,3.97
2023-05-18T15:12:17.194Z,4.65
2023-05-18T15:14:45.219Z,3.38
2023-05-18T15:17:15.198Z,3.28
2023-05-18T15:19:43.070Z,7.13
2023-05-18T15:22:10.865Z,4.55
2023-05-18T15:24:38.758Z,6.30
2023-05-18T15:27:07.367Z,4.35
2023-05-18T15:29:36.254Z,4.47
2023-05-18T15:32:04.150Z,3.60
2023-05-18T15:34:33.771Z,3.88
2023-05-18T15:37:01.583Z,4.13
2023-05-18T15:39:29.997Z,4.43
2023-05-18T15:41:57.814Z,4.72
2023-05-18T15:44:27.497Z,4.85
2023-05-18T15:46:57.268Z,3.67
2023-05-18T15:49:25.461Z,5.82
2023-05-18T15:51:54.590Z,6.10
2023-05-18T15:54:22.382Z,8.13
2023-05-18T15:56:50.577Z,6.07
2023-05-18T15:59:18.430Z,5.15
2023-05-18T16:01:46.340Z,4.80
2023-05-18T16:04:14.288Z,4.07
2023-05-18T16:06:42.080Z,5.97
2023-05-18T16:09:11.498Z,5.50
2023-05-18T16:11:39.299Z,4.32
2023-05-18T16:14:07.073Z,4.50
2023-05-18T16:16:35.010Z,4.20
2023-05-18T16:19:03.292Z,6.55
2023-05-18T16:21:31.750Z,6.35
2023-05-18T16:23:59.926Z,5.20
2023-05-18T16:26:29.078Z,4.25
2023-05-18T16:28:56.818Z,5.15
2023-05-18T16:31:24.885Z,4.30
2023-05-18T16:33:52.976Z,8.20
2023-05-18T16:36:20.945Z,4.22
2023-05-18T16:38:48.998Z,4.53
2023-05-18T16:41:17.039Z,6.28
2023-05-18T16:43:46.330Z,3.45
2023-05-18T16:46:14.198Z,5.20
2023-05-18T16:48:42.081Z,3.95
2023-05-18T16:51:10.174Z,6.20
2023-05-18T16:53:38.197Z,9.02
2023-05-18T16:56:06.654Z,6.78
2023-05-18T16:58:34.418Z,5.18
2023-05-18T17:01:09.811Z,4.15
2023-05-18T17:03:44.099Z,8.07
2023-05-18T17:06:12.044Z,3.22
2023-05-18T17:08:39.893Z,4.65
2023-05-18T17:11:07.670Z,3.38
2023-05-18T17:13:35.664Z,4.55
2023-05-18T17:16:06.558Z,4.75
2023-05-18T17:18:34.669Z,4.20
2023-05-18T17:21:02.445Z,5.30
2023-05-18T17:23:30.221Z,5.93
2023-05-18T17:26:05.875Z,5.10
2023-05-18T17:28:34.408Z,5.45
2023-05-18T17:31:02.315Z,6.95
2023-05-18T17:33:31.996Z,3.40
2023-05-18T17:35:59.796Z,2.75
2023-05-18T17:38:27.512Z,3.90
2023-05-18T17:40:55.410Z,7.18
2023-05-18T17:43:23.224Z,4.38
2023-05-18T17:45:51.256Z,4.28
2023-05-18T17:48:18.991Z,2.88
2023-05-18T17:50:48.086Z,6.43
2023-05-18T17:53:16.672Z,4.60
2023-05-18T17:55:44.632Z,5.82
2023-05-18T17:58:12.384Z,3.20
2023-05-18T18:00:40.162Z,5.78
2023-05-18T18:03:08.158Z,3.97
2023-05-18T18:05:36.862Z,7.93
2023-05-18T18:08:05.986Z,4.85
2023-05-18T18:10:34.767Z,4.60
2023-05-18T18:13:02.840Z,4.47
2023-05-18T18:15:30.781Z,2.67
2023-05-18T18:17:58.660Z,3.95
2023-05-18T18:20:26.547Z,3.35
2023-05-18T18:22:54.337Z,4.75
2023-05-18T18:25:23.404Z,8.38
2023-05-18T18:27:51.136Z,4.35
2023-05-18T18:30:19.073Z,5.93
2023-05-18T18:32:46.991Z,7.90
2023-05-18T18:35:14.864Z,5.32
2023-05-18T18:37:42.687Z,7.25
2023-05-18T18:40:12.030Z,5.07
2023-05-18T18:42:41.280Z,5.00
2023-05-18T18:45:10.019Z,5.15
2023-05-18T18:47:39.393Z,10.40
2023-05-18T18:50:09.599Z,7.38
2023-05-18T18:52:37.608Z,7.38
2023-05-18T18:55:06.075Z,6.10
2023-05-18T18:57:34.415Z,5.82
2023-05-18T19:00:06.866Z,8.52
2023-05-18T19:02:35.273Z,4.78
2023-05-18T19:05:04.119Z,4.13
2023-05-18T19:07:32.418Z,6.25
2023-05-18T19:10:11.238Z,6.30
2023-05-18T19:12:39.335Z,3.38
2023-05-18T19:15:10.618Z,3.70
2023-05-18T19:17:38.770Z,4.45
2023-05-18T19:20:08.333Z,3.70
2023-05-18T19:22:37.627Z,3.95
2023-05-18T19:28:53.108Z,2.90
2023-05-18T19:31:22.554Z,4.13
2023-05-18T19:33:50.709Z,6.22
2023-05-18T19:36:19.196Z,4.35
2023-05-18T19:38:47.925Z,5.43
2023-05-18T19:41:15.931Z,5.40
2023-05-18T19:43:43.837Z,4.28
2023-05-18T19:46:11.943Z,4.25
2023-05-18T19:48:41.586Z,5.70
2023-05-18T19:51:09.874Z,4.07
2023-05-18T19:53:38.084Z,4.75
2023-05-18T19:56:06.786Z,4.13
2023-05-18T19:58:34.808Z,7.07
2023-05-18T20:01:02.952Z,3.20
2023-05-18T20:03:32.451Z,5.78
2023-05-18T20:06:01.945Z,5.10
2023-05-18T20:08:29.980Z,6.97
2023-05-18T20:11:14.749Z,5.35
2023-05-18T20:13:44.995Z,6.80
2023-05-18T20:16:13.777Z,8.55
2023-05-18T20:18:41.928Z,6.78
2023-05-18T20:21:11.304Z,5.05
2023-05-18T20:23:41.852Z,5.65
2023-05-18T20:26:09.810Z,4.47
2023-05-18T20:28:38.026Z,8.95
2023-05-18T20:31:05.871Z,6.43
2023-05-18T20:33:34.495Z,5.73
2023-05-18T20:36:03.463Z,9.67
2023-05-18T20:44:48.332Z,5.97
2023-05-18T20:47:20.465Z,7.57
2023-05-18T20:49:48.757Z,8.03
2023-05-18T20:52:16.674Z,4.63
2023-05-18T20:54:44.698Z,8.67
2023-05-18T20:57:14.287Z,9.60
2023-05-18T20:59:42.675Z,7.50
2023-05-18T21:02:10.668Z,7.63
2023-05-18T21:04:38.464Z,9.13
2023-05-18T21:07:06.628Z,10.17
2023-05-18T21:09:34.743Z,9.57
2023-05-18T21:12:02.695Z,7.97
2023-05-18T21:14:31.924Z,8.80
2023-05-18T21:16:59.788Z,6.97
2023-05-18T21:19:27.684Z,20.33
2023-05-18T21:21:55.854Z,13.37
2023-05-18T21:24:23.654Z,8.13
2023-05-18T21:26:51.435Z,9.10
2023-05-18T21:29:19.161Z,7.73
2023-05-18T21:31:48.782Z,8.47
2023-05-18T21:34:16.651Z,8.13
2023-05-18T21:36:44.524Z,9.13
2023-05-18T21:39:12.371Z,9.17
2023-05-18T21:41:40.261Z,9.50
2023-05-18T21:44:08.089Z,11.97
2023-05-18T21:46:36.495Z,8.97
2023-05-18T21:49:06.820Z,14.27
2023-05-18T21:51:34.713Z,9.97
2023-05-18T21:54:02.876Z,8.70
2023-05-18T21:56:30.889Z,9.10
2023-05-18T21:58:58.910Z,13.47
2023-05-18T22:01:26.710Z,8.40
2023-05-18T22:03:54.751Z,10.10
2023-05-18T22:06:23.886Z,9.33
2023-05-18T22:08:51.664Z,10.97
2023-05-18T22:11:19.484Z,11.47
2023-05-18T22:13:47.192Z,7.93
2023-05-18T22:16:14.937Z,10.10
2023-05-18T22:18:42.706Z,11.57
2023-05-18T22:21:10.467Z,9.57
2023-05-18T22:23:39.686Z,15.37
2023-05-18T22:26:07.436Z,9.67
2023-05-18T22:28:35.655Z,9.10
2023-05-18T22:31:03.434Z,10.07
2023-05-18T22:33:31.188Z,9.40
2023-05-18T22:35:58.970Z,14.90
2023-05-18T22:38:27.741Z,18.23
2023-05-18T22:40:56.891Z,22.67
2023-05-18T22:43:24.647Z,18.17
2023-05-18T22:45:52.445Z,17.07
2023-05-18T22:48:20.215Z,20.07
2023-05-18T22:50:48.336Z,18.80
2023-05-18T22:53:16.080Z,16.33
2023-05-18T22:55:43.964Z,14.00
2023-05-18T22:58:13.039Z,13.57
2023-05-18T23:00:41.010Z,19.70
2023-05-18T23:03:09.060Z,24.00
2023-05-18T23:05:40.960Z,25.53
2023-05-18T23:08:09.542Z,21.83
2023-05-18T23:10:37.603Z,21.63
2023-05-18T23:13:05.372Z,17.33
2023-05-18T23:15:34.535Z,16.33
2023-05-18T23:18:02.651Z,14.23
2023-05-18T23:20:34.800Z,13.80
2023-05-18T23:23:02.674Z,15.00
2023-05-18T23:25:30.502Z,17.03
2023-05-18T23:27:58.259Z,14.50
2023-05-18T23:30:26.243Z,11.33
2023-05-18T23:32:56.599Z,11.27
2023-05-18T23:35:25.067Z,9.90
2023-05-18T23:37:54.731Z,12.83
2023-05-18T23:40:23.412Z,11.97
2023-05-18T23:42:51.731Z,9.93
2023-05-18T23:45:20.382Z,12.40
2023-05-18T23:47:48.833Z,10.43
2023-05-18T23:50:18.714Z,12.57
2023-05-18T23:52:48.125Z,11.10
2023-05-18T23:55:16.209Z,14.33
2023-05-18T23:57:44.468Z,13.33
